Index of /chokbang/upload/product/

NameLast ModifiedSize
UpParent Directory
Directorycache2018-02-26 08:47-
[IMG]2412715-1564_290x290.jpg2018-02-26 08:47 82k
[IMG]201342584821870-8974_290x290.jpg2018-02-26 08:47 54k
[IMG]193249-9463_290x290.jpg2018-02-26 08:47 93k
[IMG]201342584821870-8974.jpg2018-02-26 08:47 264k
[IMG]2017newfashionmencasualtshirtmenshortsleevetshirtmenshighend-242_345x345.jpg2018-02-26 08:47 85k
[IMG]193249-9463.jpg2018-02-26 08:47 108k
File2muoikienvangdacsanbomotnang-6529.JPG2018-02-26 08:47 296k
[IMG]2412715-1564.jpg2018-02-26 08:47 178k
[IMG]3259138-5549.jpg2018-02-26 08:47 98k
[IMG]2muoikienvangdacsanbomotnang-6529_290x290.jpg2018-02-26 08:47 108k
[IMG]898thuoctrihoichan-3584_290x290.jpg2018-02-26 08:47 71k
[IMG]450-6267.jpg2018-02-26 08:47 143k
[IMG]341-x-213-1-1581_345x345.png2018-02-26 08:47 467k
[IMG]450-6267_290x290.jpg2018-02-26 08:47 69k
[IMG]3259138-5549_290x290.jpg2018-02-26 08:47 63k
[IMG]51qbecdcw6l-2406.jpg2018-02-26 08:47 41k
[IMG]898thuoctrihoichan-3584.jpg2018-02-26 08:47 279k
[IMG]51qbecdcw6l-2406_290x290.jpg2018-02-26 08:47 82k
[IMG]cachlambomotnangchinghethoidathem-2736_345x345.jpg2018-02-26 08:47 148k
[IMG]angelagoldsamecogreen-218.jpg2018-02-26 08:47 73k
[IMG]a80f1d3ffd2bf1f9ddb62a0cb46ce380-3875.jpg2018-02-26 08:47 127k
[IMG]a80f1d3ffd2bf1f9ddb62a0cb46ce380-3875_290x290.jpg2018-02-26 08:47 44k
[IMG]angelagoldsamecogreen-218_290x290.jpg2018-02-26 08:47 39k
[IMG]dacsannhatrang-7649.jpg2018-02-26 08:47 111k
[IMG]dacsantaynguyen-6563.jpg2018-02-26 08:47 23k
[IMG]cachlambomotnangchinghethoidathem-9966_290x290.jpg2018-02-26 08:47 111k
[IMG]cachlambomotnangchinghethoidathem-9966.jpg2018-02-26 08:47 364k
[IMG]dacsannhatrang-7649_345x345.jpg2018-02-26 08:47 151k
[IMG]dau-tay-da-lat-9509.jpg2018-02-26 08:47 418k
[IMG]dacsantaynguyen-6563_345x345.jpg2018-02-26 08:47 78k
[IMG]dau-tay-da-lat-9509_290x290.jpg2018-02-26 08:47 102k
[IMG]kemtritannhangvichy3-4053.jpg2018-02-26 08:47 54k
[IMG]khogalachanh-6691.jpg2018-02-26 08:47 96k
[IMG]khogalachanh-1918.jpg2018-02-26 08:47 96k
[IMG]khogalachanh-1918_290x290.jpg2018-02-26 08:47 108k
[IMG]kemtritannhangvichy3-4053_290x290.jpg2018-02-26 08:47 53k
[IMG]khogalacphomai-9878.jpg2018-02-26 08:47 104k
[IMG]large-4572.jpg2018-02-26 08:47 16k
[IMG]khogalacphomai-9878_290x290.jpg2018-02-26 08:47 80k
[IMG]large-7418_345x345.jpg2018-02-26 08:47 59k
[IMG]khogalachanh-6691_345x345.jpg2018-02-26 08:47 142k
[IMG]large-7929_345x345.jpg2018-02-26 08:47 59k
[IMG]matong1-9396_290x290.jpg2018-02-26 08:47 76k
[IMG]large-4572_345x345.jpg2018-02-26 08:47 59k
[IMG]matong1-9396.jpg2018-02-26 08:47 88k
[IMG]large-7418.jpg2018-02-26 08:47 16k
[IMG]muathuoctot-8324.jpg2018-02-26 08:47 163k
[IMG]muathuoctot-8324_290x290.jpg2018-02-26 08:47 61k
[IMG]rau-xa-lach-4296_290x290.jpg2018-02-26 08:47 64k
[IMG]rausuplodalat-435_290x290.jpg2018-02-26 08:47 55k
[IMG]rausach-1213_345x345.jpg2018-02-26 08:47 99k
[IMG]nhauthaicuuvip12000mgduongdahieuqua1402030639-8194.jpg2018-02-26 08:47 65k
[IMG]rausach-1213.jpg2018-02-26 08:47 83k
[IMG]raubapcaitrang-5756_290x290.jpg2018-02-26 08:47 69k
[IMG]o7qrsbi6-3337.jpg2018-02-26 08:47 35k
[IMG]nhauthaicuuvip12000mgduongdahieuqua1402030639-8194_290x290.jpg2018-02-26 08:47 50k
[IMG]rausuplodalat-435.jpg2018-02-26 08:47 36k
[IMG]swp011-4446.png2018-02-26 08:47 274k
[IMG]o7qrsbi6-3337_290x290.jpg2018-02-26 08:47 60k
[IMG]raubapcaitrang-5756.jpg2018-02-26 08:47 114k
[IMG]rau-xa-lach-4296.jpg2018-02-26 08:47 234k
[IMG]my-pham-584_345x345.png2018-02-26 08:47 467k
[IMG]thaoduoctrihoimiengantamduong-7124.png2018-02-26 08:47 378k
[IMG]thucphamchucnangtrathaomochuubadsai192-323_290x290.jpg2018-02-26 08:47 55k
[IMG]thitbo1nang-6735_345x345.jpg2018-02-26 08:47 109k
[IMG]thuocdaday-70.jpg2018-02-26 08:47 15k
[IMG]thucphamchucnangtrathaomochuubadsai192-323.jpg2018-02-26 08:47 85k
[IMG]thaoduoctrihoimiengantamduong-7124_290x290.png2018-02-26 08:47 330k
[IMG]swp011-4446_290x290.png2018-02-26 08:47 330k
[IMG]untitled1-5966_345x345.png2018-02-26 08:47 467k
[IMG]untitled1-8187_345x345.png2018-02-26 08:47 467k
[IMG]thuocdaday-70_345x345.jpg2018-02-26 08:47 55k
[IMG]yjq1466040199-7756_290x290.jpg2018-02-26 08:47 77k
[IMG]yjq1466040199-7756.jpg2018-02-26 08:47 97k
[IMG]untitled1-6039_345x345.png2018-02-26 08:47 467k
[IMG]cach-giam-can-nhanh-trong-1-tuan-5012_290x290.jpg2018-05-09 02:00 79k
[IMG]cach-giam-can-nhanh-trong-1-tuan-5012.jpg2018-05-09 02:00 140k
[IMG]cach-giam-can-nhanh-trong-1-tuan-1-9896.jpg2018-05-09 02:00 921k
[IMG]cach-giam-can-nhanh-trong-1-tuan-1-9896_290x290.jpg2018-05-09 02:00 92k
Proudly Served by LiteSpeed Web Server at haihagroup.com Port 80